Time;durP1;ratioP1;P1;durP2;ratioP2;P2;SDS_P1;SDS_P2;PMS_P1;PMS_P2;Temp;Humidity;BMP_temperature;BMP_pressure;BME280_temperature;BME280_humidity;BME280_pressure;Samples;Min_cycle;Max_cycle;Signal;HPM_P1;HPM_P2
2021/09/29 00:02:02;;;;;;;175.20;162.90;;;;;;;;;;5072660;28;20447;-68
2021/09/29 00:04:31;;;;;;;191.10;178.20;;;;;;;;;;5071022;28;21016;-68
2021/09/29 00:06:58;;;;;;;184.13;171.83;;;;;;;;;;5071135;28;20462;-68
2021/09/29 00:09:25;;;;;;;175.10;162.63;;;;;;;;;;5068639;28;20473;-66
2021/09/29 00:11:52;;;;;;;163.90;152.40;;;;;;;;;;5072677;28;20447;-68
2021/09/29 00:14:19;;;;;;;164.97;153.23;;;;;;;;;;5071075;28;20498;-66
2021/09/29 00:16:46;;;;;;;172.00;160.20;;;;;;;;;;5071202;28;20466;-68
2021/09/29 00:19:14;;;;;;;163.43;151.93;;;;;;;;;;5070164;28;20475;-67
2021/09/29 00:21:42;;;;;;;165.83;154.13;;;;;;;;;;5072338;28;20446;-68
2021/09/29 00:24:09;;;;;;;170.07;158.33;;;;;;;;;;5067738;28;20507;-66
2021/09/29 00:26:36;;;;;;;166.70;154.97;;;;;;;;;;5071734;28;20443;-67
2021/09/29 00:29:04;;;;;;;160.90;149.50;;;;;;;;;;5071220;28;20814;-68
2021/09/29 00:31:35;;;;;;;171.00;159.20;;;;;;;;;;5069603;28;20830;-68
2021/09/29 00:34:08;;;;;;;161.33;149.90;;;;;;;;;;5070188;28;20524;-68
2021/09/29 00:36:35;;;;;;;161.40;149.90;;;;;;;;;;5070840;28;20465;-68
2021/09/29 00:39:04;;;;;;;163.47;152.60;;;;;;;;;;5069757;28;20489;-68
2021/09/29 00:41:32;;;;;;;150.43;139.97;;;;;;;;;;5071133;28;20565;-68
2021/09/29 00:43:59;;;;;;;155.30;144.93;;;;;;;;;;5070039;28;20554;-68
2021/09/29 00:46:26;;;;;;;147.97;137.67;;;;;;;;;;5071935;28;20450;-67
2021/09/29 00:48:53;;;;;;;148.17;138.17;;;;;;;;;;5070473;28;20463;-68
2021/09/29 00:51:20;;;;;;;146.77;136.87;;;;;;;;;;5071610;28;20800;-68
2021/09/29 00:53:50;;;;;;;142.30;132.50;;;;;;;;;;5070329;28;20467;-68
2021/09/29 00:56:19;;;;;;;141.60;132.00;;;;;;;;;;5071803;28;20439;-68
2021/09/29 00:58:46;;;;;;;144.53;134.83;;;;;;;;;;5070440;28;20482;-67
2021/09/29 01:01:13;;;;;;;145.30;135.70;;;;;;;;;;5071746;28;20449;-68
2021/09/29 01:03:41;;;;;;;143.10;133.50;;;;;;;;;;5070953;28;20463;-67
2021/09/29 01:06:11;;;;;;;151.00;140.73;;;;;;;;;;5069703;28;20483;-66
2021/09/29 01:08:40;;;;;;;150.33;140.33;;;;;;;;;;5070399;28;20849;-66
2021/09/29 01:11:10;;;;;;;154.90;144.90;;;;;;;;;;5066687;28;20470;-68
2021/09/29 01:13:42;;;;;;;149.20;139.43;;;;;;;;;;5070130;28;20471;-68
2021/09/29 01:16:11;;;;;;;150.47;140.67;;;;;;;;;;5071474;28;20439;-68
2021/09/29 01:18:42;;;;;;;144.77;135.27;;;;;;;;;;5070599;28;20489;-68
2021/09/29 01:21:11;;;;;;;144.20;134.57;;;;;;;;;;5071636;28;20454;-68
2021/09/29 01:23:46;;;;;;;143.63;134.23;;;;;;;;;;5069613;28;20455;-68
2021/09/29 01:26:16;;;;;;;147.80;138.20;;;;;;;;;;5071015;28;20449;-67
2021/09/29 01:28:45;;;;;;;145.40;135.70;;;;;;;;;;5070168;28;20458;-67
2021/09/29 01:31:13;;;;;;;149.73;140.07;;;;;;;;;;5071412;28;20450;-68
2021/09/29 01:33:41;;;;;;;148.00;138.43;;;;;;;;;;5071322;28;20883;-68
2021/09/29 01:36:08;;;;;;;149.53;139.83;;;;;;;;;;5070275;28;20844;-68
2021/09/29 01:38:38;;;;;;;148.23;138.60;;;;;;;;;;5068145;28;21030;-68
2021/09/29 01:41:05;;;;;;;149.87;139.90;;;;;;;;;;5070720;28;20473;-67
2021/09/29 01:43:34;;;;;;;149.77;140.17;;;;;;;;;;5066230;28;20464;-68
2021/09/29 01:46:01;;;;;;;145.77;136.60;;;;;;;;;;5070511;28;20479;-68
2021/09/29 01:48:28;;;;;;;145.90;136.60;;;;;;;;;;5070694;28;20454;-68
2021/09/29 01:50:58;;;;;;;144.60;135.27;;;;;;;;;;5069695;28;20471;-65
2021/09/29 01:53:26;;;;;;;146.23;136.93;;;;;;;;;;5070402;28;20467;-67
2021/09/29 01:55:53;;;;;;;141.83;132.50;;;;;;;;;;5070610;28;20486;-68
2021/09/29 01:58:20;;;;;;;144.57;135.13;;;;;;;;;;5074650;28;20870;-68
2021/09/29 02:00:49;;;;;;;143.10;133.83;;;;;;;;;;5073868;28;20459;-66
2021/09/29 02:03:21;;;;;;;141.87;132.63;;;;;;;;;;5074832;28;20953;-69
2021/09/29 02:05:49;;;;;;;151.03;141.73;;;;;;;;;;5073601;28;20479;-67
2021/09/29 02:08:16;;;;;;;138.80;129.73;;;;;;;;;;5074750;28;20462;-68
2021/09/29 02:10:43;;;;;;;135.00;126.00;;;;;;;;;;5073721;28;20450;-69
2021/09/29 02:13:10;;;;;;;136.80;128.00;;;;;;;;;;5068775;28;20470;-68
2021/09/29 02:15:38;;;;;;;141.50;132.37;;;;;;;;;;5066909;28;20832;-68
2021/09/29 02:18:06;;;;;;;141.67;132.43;;;;;;;;;;5061249;28;20463;-69
2021/09/29 02:20:33;;;;;;;144.13;134.83;;;;;;;;;;5073682;28;20458;-65
2021/09/29 02:23:00;;;;;;;141.23;132.10;;;;;;;;;;5073906;28;20465;-67
2021/09/29 02:25:27;;;;;;;142.47;133.50;;;;;;;;;;5061600;28;20865;-68
2021/09/29 02:27:54;;;;;;;134.00;125.17;;;;;;;;;;5074299;28;20451;-67
2021/09/29 02:30:22;;;;;;;137.20;128.40;;;;;;;;;;5073093;28;20980;-69
2021/09/29 02:32:50;;;;;;;136.90;128.20;;;;;;;;;;5074343;28;20449;-68
2021/09/29 02:35:18;;;;;;;131.57;123.07;;;;;;;;;;5065675;28;20487;-64
2021/09/29 02:37:45;;;;;;;130.33;122.00;;;;;;;;;;5071918;28;20563;-68
2021/09/29 02:40:13;;;;;;;137.50;128.90;;;;;;;;;;5073257;28;20874;-67
2021/09/29 02:42:40;;;;;;;130.63;122.00;;;;;;;;;;5074274;28;20453;-68
2021/09/29 02:45:07;;;;;;;134.97;126.20;;;;;;;;;;5073066;28;21035;-68
2021/09/29 02:47:34;;;;;;;136.07;127.47;;;;;;;;;;5073717;28;20442;-68
2021/09/29 02:50:02;;;;;;;140.97;132.37;;;;;;;;;;5072421;28;20960;-67
2021/09/29 02:52:30;;;;;;;129.07;120.67;;;;;;;;;;5074306;28;20447;-67
2021/09/29 02:54:57;;;;;;;132.90;124.40;;;;;;;;;;5072843;28;20483;-67
2021/09/29 02:57:24;;;;;;;133.30;124.63;;;;;;;;;;5073886;28;20439;-68
2021/09/29 02:59:51;;;;;;;130.07;121.40;;;;;;;;;;5072740;28;20491;-68
2021/09/29 03:02:18;;;;;;;130.07;121.73;;;;;;;;;;5073717;28;20443;-68
2021/09/29 03:04:45;;;;;;;138.80;129.93;;;;;;;;;;5071375;28;20989;-68
2021/09/29 03:07:12;;;;;;;141.17;132.43;;;;;;;;;;5072412;28;20466;-69
2021/09/29 03:09:41;;;;;;;125.53;117.33;;;;;;;;;;5071109;28;20456;-67
2021/09/29 03:12:09;;;;;;;132.73;124.10;;;;;;;;;;5073481;28;20810;-68
2021/09/29 03:14:36;;;;;;;129.03;120.33;;;;;;;;;;5072227;28;20489;-68
2021/09/29 03:17:03;;;;;;;127.60;118.97;;;;;;;;;;5072436;28;20462;-68
2021/09/29 03:19:30;;;;;;;133.80;125.20;;;;;;;;;;5071474;28;20989;-68
2021/09/29 03:21:58;;;;;;;126.73;118.33;;;;;;;;;;5073632;28;20533;-67
2021/09/29 03:24:25;;;;;;;127.30;118.77;;;;;;;;;;5069723;28;20490;-68
2021/09/29 03:26:53;;;;;;;130.93;122.30;;;;;;;;;;5073490;28;20470;-67
2021/09/29 03:29:20;;;;;;;133.43;124.43;;;;;;;;;;5071324;28;20998;-68
2021/09/29 03:31:47;;;;;;;134.27;125.07;;;;;;;;;;5058300;28;20462;-68
2021/09/29 03:34:14;;;;;;;138.13;129.10;;;;;;;;;;5062230;28;20475;-69
2021/09/29 03:36:41;;;;;;;129.30;120.20;;;;;;;;;;5072526;28;20463;-68
2021/09/29 03:39:09;;;;;;;137.63;128.37;;;;;;;;;;5071541;28;20490;-69
2021/09/29 03:41:36;;;;;;;133.00;124.10;;;;;;;;;;5073225;28;20447;-68
2021/09/29 03:44:04;;;;;;;132.03;123.03;;;;;;;;;;5071372;28;20467;-69
2021/09/29 03:46:31;;;;;;;143.50;134.30;;;;;;;;;;5073107;28;20447;-68
2021/09/29 03:48:59;;;;;;;128.37;119.67;;;;;;;;;;5070356;28;20470;-69
2021/09/29 03:51:26;;;;;;;128.47;119.63;;;;;;;;;;5073015;28;20856;-69
2021/09/29 03:53:53;;;;;;;148.23;139.17;;;;;;;;;;5071928;28;20462;-68
2021/09/29 03:56:20;;;;;;;132.80;123.93;;;;;;;;;;5071932;28;20473;-68
2021/09/29 03:58:47;;;;;;;131.83;122.97;;;;;;;;;;5072264;28;20958;-69
2021/09/29 04:01:16;;;;;;;137.70;128.80;;;;;;;;;;5072793;28;20447;-65
2021/09/29 04:03:43;;;;;;;145.93;136.17;;;;;;;;;;5071722;28;20458;-68
2021/09/29 04:06:11;;;;;;;140.50;131.00;;;;;;;;;;5072507;28;20455;-67
2021/09/29 04:08:38;;;;;;;138.97;129.70;;;;;;;;;;5071324;28;20842;-68
2021/09/29 04:11:07;;;;;;;130.43;121.73;;;;;;;;;;5067927;28;20459;-67
2021/09/29 04:13:34;;;;;;;133.73;124.93;;;;;;;;;;5072848;28;20537;-68
2021/09/29 04:16:01;;;;;;;123.10;114.40;;;;;;;;;;5070291;28;21069;-67
2021/09/29 04:18:30;;;;;;;131.73;122.97;;;;;;;;;;5071280;28;20459;-68
2021/09/29 04:20:57;;;;;;;122.80;114.27;;;;;;;;;;5069830;28;20487;-66
2021/09/29 04:23:24;;;;;;;126.23;117.57;;;;;;;;;;5072160;28;20957;-68
2021/09/29 04:25:52;;;;;;;118.40;110.07;;;;;;;;;;5069322;28;20563;-68
2021/09/29 04:28:20;;;;;;;117.93;109.63;;;;;;;;;;5071356;28;20496;-67
2021/09/29 04:30:47;;;;;;;138.57;130.10;;;;;;;;;;5071518;28;20497;-68
2021/09/29 04:33:14;;;;;;;129.63;120.60;;;;;;;;;;5070575;28;20463;-67
2021/09/29 04:35:43;;;;;;;124.87;116.10;;;;;;;;;;5070062;28;20494;-67
2021/09/29 04:38:10;;;;;;;124.17;115.30;;;;;;;;;;5067697;28;20463;-68
2021/09/29 04:40:37;;;;;;;128.30;119.07;;;;;;;;;;5070807;28;20993;-68
2021/09/29 04:43:04;;;;;;;133.90;125.10;;;;;;;;;;5072020;28;20447;-69
2021/09/29 04:45:31;;;;;;;127.20;118.07;;;;;;;;;;5070387;28;20518;-68
2021/09/29 04:47:58;;;;;;;133.47;124.27;;;;;;;;;;5071243;28;20489;-68
2021/09/29 04:50:25;;;;;;;121.53;112.40;;;;;;;;;;5071298;28;20443;-69
2021/09/29 04:52:54;;;;;;;125.47;116.50;;;;;;;;;;5071736;28;20458;-69
2021/09/29 04:55:21;;;;;;;122.00;113.20;;;;;;;;;;5070998;28;20477;-69
2021/09/29 04:57:48;;;;;;;126.03;117.10;;;;;;;;;;5071123;28;20459;-68
2021/09/29 05:00:16;;;;;;;128.73;119.73;;;;;;;;;;5070180;28;21019;-68
2021/09/29 05:02:45;;;;;;;124.70;115.60;;;;;;;;;;5070889;28;20463;-68
2021/09/29 05:05:12;;;;;;;126.00;116.90;;;;;;;;;;5070748;28;20475;-68
2021/09/29 05:07:41;;;;;;;134.10;124.70;;;;;;;;;;5070076;28;20474;-68
2021/09/29 05:10:11;;;;;;;131.47;121.97;;;;;;;;;;5070570;28;20519;-68
2021/09/29 05:12:38;;;;;;;137.80;128.30;;;;;;;;;;5070606;28;20975;-68
2021/09/29 05:15:06;;;;;;;217.10;203.70;;;;;;;;;;5070964;28;20478;-68
2021/09/29 05:17:33;;;;;;;139.07;129.27;;;;;;;;;;5070624;28;20504;-68
2021/09/29 05:20:00;;;;;;;137.17;127.57;;;;;;;;;;5071394;28;21004;-67
2021/09/29 05:22:27;;;;;;;135.03;125.13;;;;;;;;;;5068973;28;20475;-68
2021/09/29 05:24:54;;;;;;;132.00;122.37;;;;;;;;;;5102634;22;20867;-68
2021/09/29 05:27:23;;;;;;;139.67;130.00;;;;;;;;;;5050036;28;20444;-69
2021/09/29 05:29:51;;;;;;;135.73;126.10;;;;;;;;;;5049270;28;20946;-67
2021/09/29 05:32:18;;;;;;;139.87;130.07;;;;;;;;;;5036450;28;20440;-66
2021/09/29 05:34:45;;;;;;;138.60;128.87;;;;;;;;;;5052272;28;20483;-70
2021/09/29 05:37:12;;;;;;;131.50;121.97;;;;;;;;;;5043653;28;20825;-67
2021/09/29 05:39:39;;;;;;;142.90;132.97;;;;;;;;;;5053087;28;20476;-70
2021/09/29 05:42:07;;;;;;;136.87;127.17;;;;;;;;;;5055770;28;21145;-65
2021/09/29 05:44:37;;;;;;;142.20;132.93;;;;;;;;;;5052309;28;20493;-70
2021/09/29 05:47:04;;;;;;;143.70;133.40;;;;;;;;;;5056659;28;20459;-68
2021/09/29 05:49:31;;;;;;;145.97;135.60;;;;;;;;;;5055556;28;20474;-70
2021/09/29 05:51:58;;;;;;;138.63;128.33;;;;;;;;;;5056215;28;20447;-66
2021/09/29 05:54:25;;;;;;;106.33;98.00;;;;;;;;;;5054900;28;20463;-67
2021/09/29 05:56:52;;;;;;;98.53;91.03;;;;;;;;;;5048118;28;20463;-67
2021/09/29 05:59:19;;;;;;;97.17;89.67;;;;;;;;;;5053975;28;20448;-66
2021/09/29 06:01:48;;;;;;;106.90;98.90;;;;;;;;;;5040439;28;20445;-66
2021/09/29 06:04:15;;;;;;;118.47;109.47;;;;;;;;;;5044415;28;20452;-67
2021/09/29 06:06:42;;;;;;;141.20;130.40;;;;;;;;;;5051515;28;20470;-66
2021/09/29 06:09:09;;;;;;;188.57;174.00;;;;;;;;;;5053437;28;20456;-66
2021/09/29 06:11:36;;;;;;;276.97;256.37;;;;;;;;;;5069609;28;20449;-66
2021/09/29 06:14:04;;;;;;;403.43;376.73;;;;;;;;;;5054967;28;20802;-66
2021/09/29 06:16:34;;;;;;;509.63;472.40;;;;;;;;;;5054566;28;20558;-66
2021/09/29 06:19:02;;;;;;;605.57;563.20;;;;;;;;;;5042228;28;20505;-67
2021/09/29 06:21:29;;;;;;;649.47;605.60;;;;;;;;;;5040845;28;21019;-66
2021/09/29 06:23:56;;;;;;;666.80;621.00;;;;;;;;;;5054890;28;20448;-66
2021/09/29 06:26:23;;;;;;;663.27;620.97;;;;;;;;;;5054151;28;20482;-66
2021/09/29 06:28:51;;;;;;;649.70;608.17;;;;;;;;;;5059233;28;20450;-67
2021/09/29 06:31:18;;;;;;;599.50;561.90;;;;;;;;;;5036103;28;20459;-67
2021/09/29 06:33:49;;;;;;;498.20;463.33;;;;;;;;;;5068259;28;20449;-67
2021/09/29 06:36:18;;;;;;;510.20;476.50;;;;;;;;;;5072496;28;20474;-67
2021/09/29 06:38:45;;;;;;;441.13;410.20;;;;;;;;;;5053080;28;20455;-66
2021/09/29 06:41:12;;;;;;;441.10;411.10;;;;;;;;;;5054371;28;21014;-67
2021/09/29 06:43:39;;;;;;;470.57;442.67;;;;;;;;;;5053487;28;20459;-66
2021/09/29 06:46:06;;;;;;;441.60;414.13;;;;;;;;;;5045740;28;21013;-67
2021/09/29 06:48:33;;;;;;;411.27;384.70;;;;;;;;;;5050918;28;20463;-67
2021/09/29 06:51:01;;;;;;;430.00;404.47;;;;;;;;;;5053744;28;20910;-67
2021/09/29 06:53:29;;;;;;;395.13;370.43;;;;;;;;;;5051621;28;20475;-67
2021/09/29 06:56:01;;;;;;;452.57;429.07;;;;;;;;;;5053572;28;20468;-68
2021/09/29 06:58:28;;;;;;;420.27;397.77;;;;;;;;;;5053827;28;20460;-67
2021/09/29 07:00:55;;;;;;;415.70;394.20;;;;;;;;;;5051144;28;21001;-66
2021/09/29 07:03:22;;;;;;;415.73;393.87;;;;;;;;;;5050308;28;20456;-67
2021/09/29 07:05:50;;;;;;;382.03;363.33;;;;;;;;;;5053049;28;20540;-68
2021/09/29 07:08:17;;;;;;;456.33;428.43;;;;;;;;;;5054176;28;20456;-68
2021/09/29 07:10:45;;;;;;;425.80;400.10;;;;;;;;;;5041355;28;20928;-69
2021/09/29 07:13:12;;;;;;;445.30;417.40;;;;;;;;;;5042874;28;20466;-68
2021/09/29 07:15:40;;;;;;;465.07;435.17;;;;;;;;;;5052393;28;20471;-68
2021/09/29 07:18:08;;;;;;;453.00;424.27;;;;;;;;;;5052167;28;20525;-68
2021/09/29 07:20:35;;;;;;;465.73;432.53;;;;;;;;;;5041757;28;20843;-68
2021/09/29 07:23:06;;;;;;;460.70;425.50;;;;;;;;;;5045770;28;20962;-68
2021/09/29 07:25:34;;;;;;;464.67;432.43;;;;;;;;;;5052801;28;21031;-68
2021/09/29 07:28:02;;;;;;;466.87;433.37;;;;;;;;;;5038514;28;20456;-68
2021/09/29 07:30:29;;;;;;;451.07;417.17;;;;;;;;;;5053030;28;20459;-68
2021/09/29 07:32:58;;;;;;;473.50;440.73;;;;;;;;;;5051138;28;20454;-68
2021/09/29 07:35:25;;;;;;;473.90;439.43;;;;;;;;;;5053091;28;21026;-69
2021/09/29 07:37:52;;;;;;;471.57;438.07;;;;;;;;;;5051227;28;20447;-70
2021/09/29 07:40:19;;;;;;;485.47;449.70;;;;;;;;;;5053063;28;20986;-69
2021/09/29 07:42:46;;;;;;;473.37;442.30;;;;;;;;;;5052961;28;20452;-70
2021/09/29 07:45:15;;;;;;;464.40;435.57;;;;;;;;;;5047106;28;20483;-69
2021/09/29 07:47:42;;;;;;;467.90;439.17;;;;;;;;;;5044427;28;20474;-69
2021/09/29 07:50:12;;;;;;;468.20;440.30;;;;;;;;;;5045314;28;20451;-70
2021/09/29 07:52:39;;;;;;;465.17;438.73;;;;;;;;;;5052604;28;20513;-69
2021/09/29 07:55:08;;;;;;;483.50;453.10;;;;;;;;;;5051426;28;21017;-66
2021/09/29 07:57:35;;;;;;;460.93;432.93;;;;;;;;;;5049361;28;20448;-69
2021/09/29 08:00:02;;;;;;;480.27;448.57;;;;;;;;;;5036335;28;20851;-70
2021/09/29 08:02:31;;;;;;;479.57;449.67;;;;;;;;;;5036237;28;20464;-70
2021/09/29 08:05:01;;;;;;;462.07;434.60;;;;;;;;;;5051766;28;20835;-70
2021/09/29 08:07:29;;;;;;;482.23;456.53;;;;;;;;;;5053641;28;21002;-69
2021/09/29 08:09:56;;;;;;;458.10;433.40;;;;;;;;;;5052993;28;20448;-69
2021/09/29 08:12:23;;;;;;;448.87;426.67;;;;;;;;;;5041979;28;20453;-69
2021/09/29 08:14:50;;;;;;;424.13;404.17;;;;;;;;;;5032491;28;20473;-69
2021/09/29 08:17:17;;;;;;;414.37;395.60;;;;;;;;;;5048993;28;20472;-69
2021/09/29 08:19:46;;;;;;;435.43;416.63;;;;;;;;;;5050940;28;20447;-69
2021/09/29 08:22:13;;;;;;;415.80;396.80;;;;;;;;;;5032225;28;20480;-70
2021/09/29 08:24:45;;;;;;;413.43;395.73;;;;;;;;;;5031869;28;20487;-69
2021/09/29 08:27:18;;;;;;;387.80;370.30;;;;;;;;;;5036196;28;20448;-69
2021/09/29 08:32:37;;;;;;;362.63;346.90;;;;;;;;;;5051260;28;20440;-70
2021/09/29 08:35:11;;;;;;;332.20;318.00;;;;;;;;;;5043929;28;20500;-68
2021/09/29 08:37:45;;;;;;;334.63;320.43;;;;;;;;;;5032247;28;20936;-69
2021/09/29 08:40:17;;;;;;;319.53;305.80;;;;;;;;;;5033422;28;21020;-69
2021/09/29 08:42:57;;;;;;;331.20;317.10;;;;;;;;;;5031977;28;20453;-69
2021/09/29 08:45:29;;;;;;;322.70;307.53;;;;;;;;;;5031915;28;20551;-68
2021/09/29 08:48:03;;;;;;;299.83;286.80;;;;;;;;;;5032537;28;20499;-69
2021/09/29 08:50:46;;;;;;;301.90;288.50;;;;;;;;;;5032829;28;20448;-69
2021/09/29 08:53:44;;;;;;;310.37;297.03;;;;;;;;;;5037725;28;20837;-69
2021/09/29 09:15:45;;;;;;;243.60;232.63;;;;;;;;;;5051330;28;20489;-70
2021/09/29 09:18:15;;;;;;;246.07;234.93;;;;;;;;;;5052092;28;20494;-70
2021/09/29 09:20:45;;;;;;;244.43;233.73;;;;;;;;;;5051650;28;20487;-70
2021/09/29 09:23:14;;;;;;;260.13;248.70;;;;;;;;;;5051562;28;20474;-70
2021/09/29 09:25:42;;;;;;;257.23;245.53;;;;;;;;;;5049582;28;20482;-69
2021/09/29 09:28:14;;;;;;;242.07;230.97;;;;;;;;;;5051247;28;20458;-70
2021/09/29 09:30:41;;;;;;;329.43;314.73;;;;;;;;;;5037720;28;20467;-71
2021/09/29 09:33:08;;;;;;;431.13;403.10;;;;;;;;;;5042072;28;20448;-65
2021/09/29 09:35:43;;;;;;;464.10;432.53;;;;;;;;;;5037188;28;20469;-67
2021/09/29 09:38:20;;;;;;;499.90;463.80;;;;;;;;;;5032005;28;20460;-66
2021/09/29 09:40:53;;;;;;;494.37;458.07;;;;;;;;;;5036245;28;20475;-68
2021/09/29 09:43:20;;;;;;;517.70;481.57;;;;;;;;;;5052226;28;20911;-66
2021/09/29 09:45:48;;;;;;;526.40;489.53;;;;;;;;;;5051581;28;20469;-66
2021/09/29 09:48:16;;;;;;;538.53;500.90;;;;;;;;;;5051938;28;20462;-66
2021/09/29 09:50:43;;;;;;;534.30;496.83;;;;;;;;;;5051163;28;20542;-67
2021/09/29 09:53:14;;;;;;;545.30;505.60;;;;;;;;;;5051081;28;20458;-66
2021/09/29 09:55:42;;;;;;;554.50;515.17;;;;;;;;;;5050165;28;20986;-66
2021/09/29 09:58:10;;;;;;;514.97;475.83;;;;;;;;;;5051162;28;20453;-67
2021/09/29 10:00:37;;;;;;;426.67;395.77;;;;;;;;;;5051197;28;20820;-67
2021/09/29 10:03:05;;;;;;;410.00;383.53;;;;;;;;;;5051146;28;20458;-69
2021/09/29 10:05:32;;;;;;;397.13;370.40;;;;;;;;;;5051221;28;20491;-67
2021/09/29 10:08:01;;;;;;;435.10;405.50;;;;;;;;;;5052890;28;20465;-67
2021/09/29 10:10:32;;;;;;;458.23;426.40;;;;;;;;;;5049643;28;20459;-67
2021/09/29 10:26:06;;;;;;;480.87;445.97;;;;;;;;;;5054020;28;20469;-67
2021/09/29 10:27:08;;;;;;;438.77;408.23;;;;;;;;;;5042977;28;20443;-67
2021/09/29 10:29:43;;;;;;;400.37;376.53;;;;;;;;;;5035273;28;20444;-67
2021/09/29 10:32:16;;;;;;;392.97;368.83;;;;;;;;;;5034922;28;21060;-68
2021/09/29 10:34:55;;;;;;;392.47;367.90;;;;;;;;;;5034553;28;20900;-68
2021/09/29 10:37:49;;;;;;;399.50;375.20;;;;;;;;;;5034538;28;20785;-68
2021/09/29 10:40:36;;;;;;;399.03;377.53;;;;;;;;;;5045452;28;20546;-68
2021/09/29 10:43:04;;;;;;;386.73;366.10;;;;;;;;;;5054959;28;20701;-68
2021/09/29 10:48:28;;;;;;;393.47;374.13;;;;;;;;;;5034196;28;20437;-68
2021/09/29 11:27:47;;;;;;;443.20;418.83;;;;;;;;;;5053387;28;20439;-70
2021/09/29 11:30:20;;;;;;;411.13;387.80;;;;;;;;;;5034316;28;20449;-67
2021/09/29 11:32:51;;;;;;;473.33;448.10;;;;;;;;;;5042675;28;20488;-67
2021/09/29 11:35:28;;;;;;;473.63;447.90;;;;;;;;;;5053503;28;20463;-67
2021/09/29 11:38:16;;;;;;;490.47;463.63;;;;;;;;;;5050358;28;20526;-67
2021/09/29 12:08:32;;;;;;;152.30;144.27;;;;;;;;;;5052330;28;20447;-67
2021/09/29 12:11:03;;;;;;;133.10;125.70;;;;;;;;;;5048984;28;21015;-67
2021/09/29 12:13:40;;;;;;;235.67;224.97;;;;;;;;;;5036878;28;20964;-67
2021/09/29 12:16:07;;;;;;;274.93;262.73;;;;;;;;;;5052565;28;20475;-67
2021/09/29 12:18:34;;;;;;;304.87;291.27;;;;;;;;;;5052525;28;20451;-67
2021/09/29 12:21:01;;;;;;;348.73;333.17;;;;;;;;;;5038183;28;20463;-67
2021/09/29 12:23:30;;;;;;;387.03;368.73;;;;;;;;;;5053339;28;20535;-67
2021/09/29 12:26:17;;;;;;;374.47;356.57;;;;;;;;;;5052176;28;20490;-67
2021/09/29 12:28:58;;;;;;;395.53;376.33;;;;;;;;;;5053866;28;20539;-67
2021/09/29 12:31:45;;;;;;;391.47;371.47;;;;;;;;;;5052916;28;20466;-67
2021/09/29 12:34:22;;;;;;;392.50;374.20;;;;;;;;;;5052266;28;20452;-67
2021/09/29 12:36:49;;;;;;;353.27;337.63;;;;;;;;;;5054915;28;20443;-67
2021/09/29 12:39:21;;;;;;;318.73;304.67;;;;;;;;;;5055785;28;20454;-67
2021/09/29 12:41:49;;;;;;;182.97;174.57;;;;;;;;;;5053141;28;20486;-69
2021/09/29 12:44:16;;;;;;;111.07;105.17;;;;;;;;;;5052171;28;20454;-67
2021/09/29 12:46:47;;;;;;;109.67;103.40;;;;;;;;;;5042081;28;20480;-68
2021/09/29 12:49:18;;;;;;;207.63;197.50;;;;;;;;;;5038478;28;20550;-68
2021/09/29 12:51:46;;;;;;;297.00;284.20;;;;;;;;;;5042643;28;20479;-67
2021/09/29 12:54:18;;;;;;;342.97;327.17;;;;;;;;;;5043255;28;20458;-68
2021/09/29 12:56:46;;;;;;;391.60;373.03;;;;;;;;;;5050682;28;20514;-69
2021/09/29 12:59:13;;;;;;;414.07;393.17;;;;;;;;;;5037041;28;20452;-68
2021/09/29 13:01:40;;;;;;;368.30;348.57;;;;;;;;;;5041504;28;20496;-67
2021/09/29 13:04:07;;;;;;;403.00;381.90;;;;;;;;;;5046222;28;20448;-68
2021/09/29 13:06:35;;;;;;;422.90;400.97;;;;;;;;;;5051184;28;20479;-68
2021/09/29 13:09:02;;;;;;;437.27;414.37;;;;;;;;;;5049939;28;20452;-67
2021/09/29 13:11:29;;;;;;;453.27;429.00;;;;;;;;;;5051705;28;20475;-67
2021/09/29 13:13:57;;;;;;;438.00;414.10;;;;;;;;;;5037536;28;20460;-67
2021/09/29 13:16:26;;;;;;;473.57;448.37;;;;;;;;;;5031600;28;20465;-68
2021/09/29 13:19:00;;;;;;;467.50;441.80;;;;;;;;;;5039864;28;20952;-68
2021/09/29 13:21:32;;;;;;;477.83;452.73;;;;;;;;;;5044106;28;20448;-67
2021/09/29 13:24:02;;;;;;;485.47;460.17;;;;;;;;;;5048934;28;20483;-67
2021/09/29 13:37:35;;;;;;;341.80;319.83;;;;;;;;;;5046111;28;20424;-68
2021/09/29 13:40:02;;;;;;;315.53;295.07;;;;;;;;;;5048984;28;20451;-68
2021/09/29 13:42:30;;;;;;;282.10;263.00;;;;;;;;;;5049138;28;20479;-66
2021/09/29 13:44:58;;;;;;;305.37;285.27;;;;;;;;;;5047687;28;20998;-66
2021/09/29 13:47:26;;;;;;;346.23;323.03;;;;;;;;;;5050446;28;20459;-66
2021/09/29 13:49:53;;;;;;;343.57;319.37;;;;;;;;;;5051087;28;20954;-66
2021/09/29 13:52:23;;;;;;;380.23;355.13;;;;;;;;;;5051146;28;20447;-65
2021/09/29 13:54:52;;;;;;;467.30;432.73;;;;;;;;;;5045313;28;20459;-67
2021/09/29 13:57:22;;;;;;;490.53;455.67;;;;;;;;;;5052926;28;20483;-66
2021/09/29 13:59:58;;;;;;;492.67;458.10;;;;;;;;;;5048657;28;20815;-67
2021/09/29 14:30:13;;;;;;;533.97;491.70;;;;;;;;;;5055742;28;20882;-67
2021/09/29 14:32:54;;;;;;;525.00;486.27;;;;;;;;;;5054979;28;20466;-67
2021/09/29 14:35:23;;;;;;;528.40;488.33;;;;;;;;;;5046228;28;20476;-66
2021/09/29 14:37:50;;;;;;;547.30;505.43;;;;;;;;;;5034300;28;20445;-66
2021/09/29 14:40:18;;;;;;;537.07;497.27;;;;;;;;;;5035298;28;20514;-67
2021/09/29 14:42:45;;;;;;;536.57;498.23;;;;;;;;;;5052571;28;20516;-67
2021/09/29 14:45:12;;;;;;;518.40;481.10;;;;;;;;;;5054120;28;20473;-67
2021/09/29 14:47:39;;;;;;;530.17;492.10;;;;;;;;;;5062457;28;20454;-67
2021/09/29 14:50:07;;;;;;;516.87;480.37;;;;;;;;;;5066713;28;20464;-67
2021/09/29 14:52:36;;;;;;;499.93;470.70;;;;;;;;;;5066753;28;20554;-67
2021/09/29 14:55:03;;;;;;;514.60;477.80;;;;;;;;;;5056665;28;20541;-67
2021/09/29 14:57:30;;;;;;;519.90;480.43;;;;;;;;;;5037792;28;20452;-67
2021/09/29 14:59:57;;;;;;;522.10;484.43;;;;;;;;;;5042610;28;20450;-69
2021/09/29 15:02:24;;;;;;;522.87;484.00;;;;;;;;;;5053846;28;20833;-68
2021/09/29 15:04:51;;;;;;;521.50;483.70;;;;;;;;;;5047238;28;20847;-68
2021/09/29 15:07:18;;;;;;;523.27;485.77;;;;;;;;;;5044004;28;20463;-67
2021/09/29 15:09:47;;;;;;;565.70;523.27;;;;;;;;;;5052117;28;20479;-69
2021/09/29 15:12:14;;;;;;;526.50;487.90;;;;;;;;;;5053840;28;20443;-70
2021/09/29 15:14:51;;;;;;;533.80;496.10;;;;;;;;;;5053673;28;20476;-69
2021/09/29 15:17:27;;;;;;;530.13;491.53;;;;;;;;;;5044374;28;20970;-70
2021/09/29 15:19:57;;;;;;;508.67;471.47;;;;;;;;;;5038516;28;20455;-69
2021/09/29 15:22:43;;;;;;;489.83;454.97;;;;;;;;;;5053845;28;20490;-69
2021/09/29 15:25:29;;;;;;;498.23;469.90;;;;;;;;;;5052026;28;20557;-69
2021/09/29 15:28:20;;;;;;;440.50;411.60;;;;;;;;;;5052694;28;20482;-69
2021/09/29 15:31:04;;;;;;;439.13;411.43;;;;;;;;;;5053494;28;20453;-69
2021/09/29 15:47:16;;;;;;;287.73;271.20;;;;;;;;;;5052014;28;20434;-67
2021/09/29 15:55:30;;;;;;;157.67;146.67;;;;;;;;;;4987519;28;20462;-68
2021/09/29 16:09:25;;;;;;;166.50;155.00;;;;;;;;;;5045411;28;20448;-71
2021/09/29 16:17:38;;;;;;;169.27;157.47;;;;;;;;;;4996810;28;20443;-73
2021/09/29 16:23:27;;;;;;;177.13;164.77;;;;;;;;;;5052004;28;20464;-71
2021/09/29 16:31:28;;;;;;;179.60;167.40;;;;;;;;;;5053211;28;20558;-70
2021/09/29 16:33:57;;;;;;;164.10;152.50;;;;;;;;;;5045786;28;20476;-68
2021/09/29 16:36:25;;;;;;;161.93;150.40;;;;;;;;;;5032957;28;20474;-69
2021/09/29 16:38:52;;;;;;;158.80;147.40;;;;;;;;;;5039796;28;20443;-69
2021/09/29 16:41:21;;;;;;;160.93;149.43;;;;;;;;;;5053154;28;20450;-73
2021/09/29 16:43:48;;;;;;;162.60;151.10;;;;;;;;;;5050557;28;20844;-67
2021/09/29 16:46:19;;;;;;;158.60;147.57;;;;;;;;;;5050879;28;20474;-72
2021/09/29 16:48:47;;;;;;;152.90;141.50;;;;;;;;;;5039169;28;20570;-68
2021/09/29 16:51:22;;;;;;;143.53;132.83;;;;;;;;;;5052792;28;21000;-71
2021/09/29 16:53:51;;;;;;;155.40;144.13;;;;;;;;;;5049667;28;20478;-74
2021/09/29 16:56:18;;;;;;;155.77;143.83;;;;;;;;;;5050533;28;20476;-71
2021/09/29 16:58:48;;;;;;;166.73;154.70;;;;;;;;;;5047969;28;20459;-73
2021/09/29 17:01:17;;;;;;;163.27;151.07;;;;;;;;;;5033789;28;20940;-72
2021/09/29 17:03:44;;;;;;;165.20;152.80;;;;;;;;;;5034889;28;20994;-70
2021/09/29 17:06:13;;;;;;;163.50;151.00;;;;;;;;;;5033369;28;20483;-68
2021/09/29 17:08:41;;;;;;;164.93;152.03;;;;;;;;;;5033352;28;20448;-71